sensor_id;sensor_type;location;lat;lon;timestamp;P1;durP1;ratioP1;P2;durP2;ratioP2
69847;SDS011;57143;55.940;37.496;2023-06-22T00:02:23;13.93;;;5.63;;
69847;SDS011;57143;55.940;37.496;2023-06-22T00:04:51;14.03;;;5.97;;
69847;SDS011;57143;55.940;37.496;2023-06-22T00:07:19;18.60;;;5.50;;
69847;SDS011;57143;55.940;37.496;2023-06-22T00:09:47;15.95;;;6.00;;
69847;SDS011;57143;55.940;37.496;2023-06-22T00:12:14;13.57;;;5.93;;
69847;SDS011;57143;55.940;37.496;2023-06-22T00:14:41;15.60;;;5.93;;
69847;SDS011;57143;55.940;37.496;2023-06-22T00:17:08;14.67;;;5.43;;
69847;SDS011;57143;55.940;37.496;2023-06-22T00:19:35;16.40;;;5.68;;
69847;SDS011;57143;55.940;37.496;2023-06-22T00:22:06;16.20;;;6.35;;
69847;SDS011;57143;55.940;37.496;2023-06-22T00:24:34;17.17;;;6.38;;
69847;SDS011;57143;55.940;37.496;2023-06-22T00:27:02;17.60;;;6.45;;
69847;SDS011;57143;55.940;37.496;2023-06-22T00:29:30;14.73;;;6.47;;
69847;SDS011;57143;55.940;37.496;2023-06-22T00:31:57;14.63;;;5.50;;
69847;SDS011;57143;55.940;37.496;2023-06-22T00:34:24;16.45;;;5.90;;
69847;SDS011;57143;55.940;37.496;2023-06-22T00:36:51;15.38;;;6.05;;
69847;SDS011;57143;55.940;37.496;2023-06-22T00:39:19;14.52;;;6.00;;
69847;SDS011;57143;55.940;37.496;2023-06-22T00:41:47;17.23;;;6.17;;
69847;SDS011;57143;55.940;37.496;2023-06-22T00:44:14;14.10;;;6.00;;
69847;SDS011;57143;55.940;37.496;2023-06-22T00:46:41;15.63;;;6.32;;
69847;SDS011;57143;55.940;37.496;2023-06-22T00:49:09;15.23;;;6.07;;
69847;SDS011;57143;55.940;37.496;2023-06-22T00:51:37;14.60;;;6.53;;
69847;SDS011;57143;55.940;37.496;2023-06-22T00:54:11;13.90;;;6.33;;
69847;SDS011;57143;55.940;37.496;2023-06-22T00:56:38;14.35;;;6.35;;
69847;SDS011;57143;55.940;37.496;2023-06-22T00:59:09;16.38;;;6.93;;
69847;SDS011;57143;55.940;37.496;2023-06-22T01:01:38;14.73;;;5.85;;
69847;SDS011;57143;55.940;37.496;2023-06-22T01:04:06;19.33;;;6.45;;
69847;SDS011;57143;55.940;37.496;2023-06-22T01:06:35;14.77;;;5.73;;
69847;SDS011;57143;55.940;37.496;2023-06-22T01:09:12;13.60;;;5.80;;
69847;SDS011;57143;55.940;37.496;2023-06-22T01:11:42;17.00;;;7.05;;
69847;SDS011;57143;55.940;37.496;2023-06-22T01:14:15;14.63;;;6.18;;
69847;SDS011;57143;55.940;37.496;2023-06-22T01:16:50;15.90;;;6.40;;
69847;SDS011;57143;55.940;37.496;2023-06-22T01:19:27;16.27;;;6.47;;
69847;SDS011;57143;55.940;37.496;2023-06-22T01:22:02;15.85;;;6.30;;
69847;SDS011;57143;55.940;37.496;2023-06-22T01:24:33;13.55;;;6.18;;
69847;SDS011;57143;55.940;37.496;2023-06-22T01:27:09;17.35;;;7.07;;
69847;SDS011;57143;55.940;37.496;2023-06-22T01:29:49;14.55;;;6.10;;
69847;SDS011;57143;55.940;37.496;2023-06-22T01:32:18;13.47;;;6.10;;
69847;SDS011;57143;55.940;37.496;2023-06-22T01:34:46;15.52;;;6.13;;
69847;SDS011;57143;55.940;37.496;2023-06-22T01:37:15;13.70;;;6.03;;
69847;SDS011;57143;55.940;37.496;2023-06-22T01:39:43;16.02;;;5.88;;
69847;SDS011;57143;55.940;37.496;2023-06-22T01:42:11;15.93;;;6.25;;
69847;SDS011;57143;55.940;37.496;2023-06-22T01:44:38;17.17;;;6.43;;
69847;SDS011;57143;55.940;37.496;2023-06-22T01:47:08;14.90;;;5.93;;
69847;SDS011;57143;55.940;37.496;2023-06-22T01:49:35;15.73;;;6.85;;
69847;SDS011;57143;55.940;37.496;2023-06-22T01:52:03;20.20;;;6.90;;
69847;SDS011;57143;55.940;37.496;2023-06-22T01:54:31;13.27;;;6.45;;
69847;SDS011;57143;55.940;37.496;2023-06-22T01:56:58;16.83;;;6.77;;
69847;SDS011;57143;55.940;37.496;2023-06-22T01:59:28;13.52;;;6.03;;
69847;SDS011;57143;55.940;37.496;2023-06-22T02:02:00;18.73;;;7.80;;
69847;SDS011;57143;55.940;37.496;2023-06-22T02:04:32;15.73;;;6.60;;
69847;SDS011;57143;55.940;37.496;2023-06-22T02:07:02;25.70;;;7.43;;
69847;SDS011;57143;55.940;37.496;2023-06-22T02:09:35;19.23;;;6.30;;
69847;SDS011;57143;55.940;37.496;2023-06-22T02:12:05;17.00;;;6.18;;
69847;SDS011;57143;55.940;37.496;2023-06-22T02:14:36;19.83;;;8.00;;
69847;SDS011;57143;55.940;37.496;2023-06-22T02:17:04;14.30;;;6.07;;
69847;SDS011;57143;55.940;37.496;2023-06-22T02:19:37;17.95;;;6.70;;
69847;SDS011;57143;55.940;37.496;2023-06-22T02:22:04;18.50;;;6.67;;
69847;SDS011;57143;55.940;37.496;2023-06-22T02:24:32;14.23;;;7.32;;
69847;SDS011;57143;55.940;37.496;2023-06-22T02:26:59;15.20;;;6.78;;
69847;SDS011;57143;55.940;37.496;2023-06-22T02:29:27;14.20;;;6.93;;
69847;SDS011;57143;55.940;37.496;2023-06-22T02:31:55;14.10;;;6.43;;
69847;SDS011;57143;55.940;37.496;2023-06-22T02:34:22;18.07;;;6.53;;
69847;SDS011;57143;55.940;37.496;2023-06-22T02:36:51;16.85;;;7.03;;
69847;SDS011;57143;55.940;37.496;2023-06-22T02:39:19;18.50;;;6.50;;
69847;SDS011;57143;55.940;37.496;2023-06-22T02:41:47;12.88;;;6.53;;
69847;SDS011;57143;55.940;37.496;2023-06-22T02:44:15;17.38;;;6.47;;
69847;SDS011;57143;55.940;37.496;2023-06-22T02:46:42;15.83;;;6.77;;
69847;SDS011;57143;55.940;37.496;2023-06-22T02:49:09;14.80;;;6.85;;
69847;SDS011;57143;55.940;37.496;2023-06-22T02:51:38;12.80;;;6.57;;
69847;SDS011;57143;55.940;37.496;2023-06-22T02:54:07;16.98;;;6.75;;
69847;SDS011;57143;55.940;37.496;2023-06-22T02:56:34;22.08;;;6.47;;
69847;SDS011;57143;55.940;37.496;2023-06-22T02:59:02;18.03;;;6.80;;
69847;SDS011;57143;55.940;37.496;2023-06-22T03:01:29;15.30;;;6.30;;
69847;SDS011;57143;55.940;37.496;2023-06-22T03:04:05;15.63;;;6.53;;
69847;SDS011;57143;55.940;37.496;2023-06-22T03:06:32;15.32;;;6.82;;
69847;SDS011;57143;55.940;37.496;2023-06-22T03:09:00;18.65;;;6.78;;
69847;SDS011;57143;55.940;37.496;2023-06-22T03:11:30;18.63;;;6.97;;
69847;SDS011;57143;55.940;37.496;2023-06-22T03:13:58;22.35;;;7.40;;
69847;SDS011;57143;55.940;37.496;2023-06-22T03:16:25;20.00;;;7.03;;
69847;SDS011;57143;55.940;37.496;2023-06-22T03:18:56;23.05;;;7.43;;
69847;SDS011;57143;55.940;37.496;2023-06-22T03:21:23;22.40;;;7.63;;
69847;SDS011;57143;55.940;37.496;2023-06-22T03:23:52;15.90;;;7.00;;
69847;SDS011;57143;55.940;37.496;2023-06-22T03:26:19;17.25;;;7.13;;
69847;SDS011;57143;55.940;37.496;2023-06-22T03:28:48;20.90;;;7.30;;
69847;SDS011;57143;55.940;37.496;2023-06-22T03:31:15;20.00;;;7.13;;
69847;SDS011;57143;55.940;37.496;2023-06-22T03:33:47;14.82;;;6.40;;
69847;SDS011;57143;55.940;37.496;2023-06-22T03:36:14;16.90;;;6.37;;
69847;SDS011;57143;55.940;37.496;2023-06-22T03:38:44;15.63;;;6.30;;
69847;SDS011;57143;55.940;37.496;2023-06-22T03:41:11;15.98;;;6.88;;
69847;SDS011;57143;55.940;37.496;2023-06-22T03:43:38;14.80;;;6.65;;
69847;SDS011;57143;55.940;37.496;2023-06-22T03:46:07;15.63;;;5.93;;
69847;SDS011;57143;55.940;37.496;2023-06-22T03:48:35;13.27;;;6.63;;
69847;SDS011;57143;55.940;37.496;2023-06-22T03:51:02;17.13;;;5.80;;
69847;SDS011;57143;55.940;37.496;2023-06-22T03:53:29;12.75;;;5.72;;
69847;SDS011;57143;55.940;37.496;2023-06-22T03:55:56;13.07;;;6.22;;
69847;SDS011;57143;55.940;37.496;2023-06-22T03:58:23;10.02;;;5.53;;
69847;SDS011;57143;55.940;37.496;2023-06-22T04:00:51;13.67;;;5.23;;
69847;SDS011;57143;55.940;37.496;2023-06-22T04:03:20;11.50;;;5.50;;
69847;SDS011;57143;55.940;37.496;2023-06-22T04:05:47;11.10;;;5.00;;
69847;SDS011;57143;55.940;37.496;2023-06-22T04:08:15;11.38;;;4.82;;
69847;SDS011;57143;55.940;37.496;2023-06-22T04:10:42;9.32;;;4.85;;
69847;SDS011;57143;55.940;37.496;2023-06-22T04:13:09;9.83;;;5.00;;
69847;SDS011;57143;55.940;37.496;2023-06-22T04:15:36;10.55;;;5.10;;
69847;SDS011;57143;55.940;37.496;2023-06-22T04:18:03;10.20;;;5.47;;
69847;SDS011;57143;55.940;37.496;2023-06-22T04:20:32;12.50;;;5.28;;
69847;SDS011;57143;55.940;37.496;2023-06-22T04:22:59;10.88;;;5.03;;
69847;SDS011;57143;55.940;37.496;2023-06-22T04:25:26;10.57;;;4.50;;
69847;SDS011;57143;55.940;37.496;2023-06-22T04:27:53;12.55;;;4.78;;
69847;SDS011;57143;55.940;37.496;2023-06-22T04:30:21;9.15;;;5.15;;
69847;SDS011;57143;55.940;37.496;2023-06-22T04:32:48;8.68;;;3.95;;
69847;SDS011;57143;55.940;37.496;2023-06-22T04:35:21;8.65;;;4.65;;
69847;SDS011;57143;55.940;37.496;2023-06-22T04:37:50;9.03;;;4.23;;
69847;SDS011;57143;55.940;37.496;2023-06-22T04:40:21;8.43;;;4.07;;
69847;SDS011;57143;55.940;37.496;2023-06-22T04:42:48;9.30;;;4.22;;
69847;SDS011;57143;55.940;37.496;2023-06-22T04:45:19;10.18;;;4.55;;
69847;SDS011;57143;55.940;37.496;2023-06-22T04:47:47;10.90;;;4.93;;
69847;SDS011;57143;55.940;37.496;2023-06-22T04:50:14;9.00;;;4.43;;
69847;SDS011;57143;55.940;37.496;2023-06-22T04:52:42;8.32;;;4.40;;
69847;SDS011;57143;55.940;37.496;2023-06-22T04:55:12;9.45;;;4.43;;
69847;SDS011;57143;55.940;37.496;2023-06-22T04:57:43;10.10;;;4.63;;
69847;SDS011;57143;55.940;37.496;2023-06-22T05:00:14;9.98;;;4.28;;
69847;SDS011;57143;55.940;37.496;2023-06-22T05:02:43;9.40;;;4.40;;
69847;SDS011;57143;55.940;37.496;2023-06-22T05:05:11;8.43;;;4.50;;
69847;SDS011;57143;55.940;37.496;2023-06-22T05:07:40;10.88;;;4.43;;
69847;SDS011;57143;55.940;37.496;2023-06-22T05:10:10;10.15;;;4.20;;
69847;SDS011;57143;55.940;37.496;2023-06-22T05:12:39;9.10;;;4.07;;
69847;SDS011;57143;55.940;37.496;2023-06-22T05:15:07;9.63;;;4.40;;
69847;SDS011;57143;55.940;37.496;2023-06-22T05:17:35;7.97;;;4.35;;
69847;SDS011;57143;55.940;37.496;2023-06-22T05:20:08;10.43;;;4.72;;
69847;SDS011;57143;55.940;37.496;2023-06-22T05:22:36;9.45;;;4.25;;
69847;SDS011;57143;55.940;37.496;2023-06-22T05:25:04;7.90;;;4.10;;
69847;SDS011;57143;55.940;37.496;2023-06-22T05:27:34;8.87;;;4.53;;
69847;SDS011;57143;55.940;37.496;2023-06-22T05:30:05;10.30;;;4.60;;
69847;SDS011;57143;55.940;37.496;2023-06-22T05:32:33;8.57;;;5.05;;
69847;SDS011;57143;55.940;37.496;2023-06-22T05:35:00;10.27;;;4.70;;
69847;SDS011;57143;55.940;37.496;2023-06-22T05:37:29;10.07;;;4.85;;
69847;SDS011;57143;55.940;37.496;2023-06-22T05:39:57;8.17;;;4.20;;
69847;SDS011;57143;55.940;37.496;2023-06-22T05:42:24;13.70;;;4.80;;
69847;SDS011;57143;55.940;37.496;2023-06-22T05:44:53;7.78;;;4.18;;
69847;SDS011;57143;55.940;37.496;2023-06-22T05:47:20;8.82;;;4.10;;
69847;SDS011;57143;55.940;37.496;2023-06-22T05:49:48;8.85;;;4.93;;
69847;SDS011;57143;55.940;37.496;2023-06-22T05:52:15;10.13;;;4.67;;
69847;SDS011;57143;55.940;37.496;2023-06-22T05:54:42;11.57;;;4.78;;
69847;SDS011;57143;55.940;37.496;2023-06-22T05:57:09;9.10;;;4.65;;
69847;SDS011;57143;55.940;37.496;2023-06-22T05:59:36;8.27;;;4.32;;
69847;SDS011;57143;55.940;37.496;2023-06-22T06:02:05;10.00;;;4.45;;
69847;SDS011;57143;55.940;37.496;2023-06-22T06:04:32;11.33;;;4.63;;
69847;SDS011;57143;55.940;37.496;2023-06-22T06:07:00;9.13;;;4.88;;
69847;SDS011;57143;55.940;37.496;2023-06-22T06:09:27;9.63;;;4.75;;
69847;SDS011;57143;55.940;37.496;2023-06-22T06:11:54;9.45;;;4.40;;
69847;SDS011;57143;55.940;37.496;2023-06-22T06:14:22;7.88;;;4.82;;
69847;SDS011;57143;55.940;37.496;2023-06-22T06:16:49;9.20;;;4.60;;
69847;SDS011;57143;55.940;37.496;2023-06-22T06:19:18;9.70;;;4.15;;
69847;SDS011;57143;55.940;37.496;2023-06-22T06:21:45;9.30;;;4.47;;
69847;SDS011;57143;55.940;37.496;2023-06-22T06:24:12;11.82;;;4.93;;
69847;SDS011;57143;55.940;37.496;2023-06-22T06:26:39;9.48;;;4.45;;
69847;SDS011;57143;55.940;37.496;2023-06-22T06:29:07;9.90;;;4.57;;
69847;SDS011;57143;55.940;37.496;2023-06-22T06:31:34;9.52;;;3.88;;
69847;SDS011;57143;55.940;37.496;2023-06-22T06:34:01;9.02;;;4.50;;
69847;SDS011;57143;55.940;37.496;2023-06-22T06:36:30;9.07;;;4.03;;
69847;SDS011;57143;55.940;37.496;2023-06-22T06:38:57;7.85;;;4.57;;
69847;SDS011;57143;55.940;37.496;2023-06-22T06:41:24;9.67;;;4.47;;
69847;SDS011;57143;55.940;37.496;2023-06-22T06:43:51;9.35;;;4.28;;
69847;SDS011;57143;55.940;37.496;2023-06-22T06:46:18;7.80;;;4.00;;
69847;SDS011;57143;55.940;37.496;2023-06-22T06:48:45;8.80;;;3.85;;
69847;SDS011;57143;55.940;37.496;2023-06-22T06:51:13;7.13;;;3.80;;
69847;SDS011;57143;55.940;37.496;2023-06-22T06:53:42;6.83;;;3.43;;
69847;SDS011;57143;55.940;37.496;2023-06-22T06:56:09;8.82;;;3.65;;
69847;SDS011;57143;55.940;37.496;2023-06-22T06:58:38;6.55;;;3.47;;
69847;SDS011;57143;55.940;37.496;2023-06-22T07:01:07;7.28;;;3.90;;
69847;SDS011;57143;55.940;37.496;2023-06-22T07:03:34;7.30;;;3.78;;
69847;SDS011;57143;55.940;37.496;2023-06-22T07:06:02;7.43;;;3.83;;
69847;SDS011;57143;55.940;37.496;2023-06-22T07:08:29;6.30;;;3.63;;
69847;SDS011;57143;55.940;37.496;2023-06-22T07:10:58;6.95;;;3.60;;
69847;SDS011;57143;55.940;37.496;2023-06-22T07:13:26;7.57;;;3.47;;
69847;SDS011;57143;55.940;37.496;2023-06-22T07:15:53;9.00;;;3.58;;
69847;SDS011;57143;55.940;37.496;2023-06-22T07:18:20;7.13;;;3.80;;
69847;SDS011;57143;55.940;37.496;2023-06-22T07:20:48;7.13;;;3.53;;
69847;SDS011;57143;55.940;37.496;2023-06-22T07:23:15;6.30;;;3.50;;
69847;SDS011;57143;55.940;37.496;2023-06-22T07:25:43;7.65;;;3.60;;
69847;SDS011;57143;55.940;37.496;2023-06-22T07:28:12;10.00;;;3.45;;
69847;SDS011;57143;55.940;37.496;2023-06-22T07:30:39;6.93;;;3.50;;
69847;SDS011;57143;55.940;37.496;2023-06-22T07:33:07;7.05;;;3.55;;
69847;SDS011;57143;55.940;37.496;2023-06-22T07:35:34;7.28;;;4.13;;
69847;SDS011;57143;55.940;37.496;2023-06-22T07:38:01;8.05;;;3.63;;
69847;SDS011;57143;55.940;37.496;2023-06-22T07:40:28;8.35;;;3.75;;
69847;SDS011;57143;55.940;37.496;2023-06-22T07:42:56;8.97;;;4.10;;
69847;SDS011;57143;55.940;37.496;2023-06-22T07:45:24;7.50;;;3.13;;
69847;SDS011;57143;55.940;37.496;2023-06-22T07:47:51;9.88;;;4.50;;
69847;SDS011;57143;55.940;37.496;2023-06-22T07:50:19;7.80;;;3.58;;
69847;SDS011;57143;55.940;37.496;2023-06-22T07:52:46;6.78;;;3.70;;
69847;SDS011;57143;55.940;37.496;2023-06-22T07:55:14;7.43;;;3.97;;
69847;SDS011;57143;55.940;37.496;2023-06-22T07:57:41;7.70;;;4.13;;
69847;SDS011;57143;55.940;37.496;2023-06-22T08:00:09;10.75;;;4.25;;
69847;SDS011;57143;55.940;37.496;2023-06-22T08:02:41;8.50;;;3.58;;
69847;SDS011;57143;55.940;37.496;2023-06-22T08:05:11;8.40;;;4.05;;
69847;SDS011;57143;55.940;37.496;2023-06-22T08:07:38;7.20;;;3.67;;
69847;SDS011;57143;55.940;37.496;2023-06-22T08:10:10;7.63;;;3.80;;
69847;SDS011;57143;55.940;37.496;2023-06-22T08:12:37;8.10;;;3.80;;
69847;SDS011;57143;55.940;37.496;2023-06-22T08:15:05;7.03;;;3.40;;
69847;SDS011;57143;55.940;37.496;2023-06-22T08:17:36;10.27;;;3.38;;
69847;SDS011;57143;55.940;37.496;2023-06-22T08:20:05;8.37;;;3.20;;
69847;SDS011;57143;55.940;37.496;2023-06-22T08:22:37;6.55;;;3.00;;
69847;SDS011;57143;55.940;37.496;2023-06-22T08:25:05;7.85;;;4.03;;
69847;SDS011;57143;55.940;37.496;2023-06-22T08:27:33;6.63;;;3.53;;
69847;SDS011;57143;55.940;37.496;2023-06-22T08:30:00;8.90;;;3.53;;
69847;SDS011;57143;55.940;37.496;2023-06-22T08:32:31;8.83;;;3.57;;
69847;SDS011;57143;55.940;37.496;2023-06-22T08:34:59;6.88;;;3.35;;
69847;SDS011;57143;55.940;37.496;2023-06-22T08:37:27;8.27;;;3.53;;
69847;SDS011;57143;55.940;37.496;2023-06-22T08:39:56;7.40;;;3.70;;
69847;SDS011;57143;55.940;37.496;2023-06-22T08:42:26;8.05;;;3.30;;
69847;SDS011;57143;55.940;37.496;2023-06-22T08:44:53;9.17;;;3.67;;
69847;SDS011;57143;55.940;37.496;2023-06-22T08:47:20;9.50;;;3.83;;
69847;SDS011;57143;55.940;37.496;2023-06-22T08:49:48;6.68;;;3.75;;
69847;SDS011;57143;55.940;37.496;2023-06-22T08:52:15;8.90;;;3.50;;
69847;SDS011;57143;55.940;37.496;2023-06-22T08:54:45;9.60;;;3.92;;
69847;SDS011;57143;55.940;37.496;2023-06-22T08:57:12;10.27;;;3.83;;
69847;SDS011;57143;55.940;37.496;2023-06-22T08:59:39;8.70;;;4.47;;
69847;SDS011;57143;55.940;37.496;2023-06-22T09:02:07;10.25;;;3.63;;
69847;SDS011;57143;55.940;37.496;2023-06-22T09:04:34;8.00;;;3.60;;
69847;SDS011;57143;55.940;37.496;2023-06-22T09:07:02;6.82;;;3.65;;
69847;SDS011;57143;55.940;37.496;2023-06-22T09:09:29;7.37;;;3.40;;
69847;SDS011;57143;55.940;37.496;2023-06-22T09:11:58;6.22;;;3.10;;
69847;SDS011;57143;55.940;37.496;2023-06-22T09:14:25;7.05;;;3.75;;
69847;SDS011;57143;55.940;37.496;2023-06-22T09:16:54;7.65;;;3.78;;
69847;SDS011;57143;55.940;37.496;2023-06-22T09:19:22;8.45;;;3.75;;
69847;SDS011;57143;55.940;37.496;2023-06-22T09:21:49;8.27;;;3.63;;
69847;SDS011;57143;55.940;37.496;2023-06-22T09:24:16;8.60;;;3.33;;
69847;SDS011;57143;55.940;37.496;2023-06-22T09:26:44;9.75;;;3.55;;
69847;SDS011;57143;55.940;37.496;2023-06-22T09:29:12;9.02;;;3.38;;
69847;SDS011;57143;55.940;37.496;2023-06-22T09:31:39;8.25;;;4.38;;
69847;SDS011;57143;55.940;37.496;2023-06-22T09:34:07;8.37;;;3.70;;
69847;SDS011;57143;55.940;37.496;2023-06-22T09:36:34;8.02;;;3.47;;
69847;SDS011;57143;55.940;37.496;2023-06-22T09:39:02;8.63;;;3.85;;
69847;SDS011;57143;55.940;37.496;2023-06-22T09:41:31;6.88;;;3.53;;
69847;SDS011;57143;55.940;37.496;2023-06-22T09:43:59;12.10;;;4.00;;
69847;SDS011;57143;55.940;37.496;2023-06-22T09:46:27;8.13;;;3.63;;
69847;SDS011;57143;55.940;37.496;2023-06-22T09:48:54;8.55;;;3.47;;
69847;SDS011;57143;55.940;37.496;2023-06-22T09:51:22;8.07;;;3.60;;
69847;SDS011;57143;55.940;37.496;2023-06-22T09:53:49;7.05;;;3.70;;
69847;SDS011;57143;55.940;37.496;2023-06-22T09:56:17;7.43;;;4.13;;
69847;SDS011;57143;55.940;37.496;2023-06-22T09:58:45;8.80;;;3.90;;
69847;SDS011;57143;55.940;37.496;2023-06-22T10:01:15;7.43;;;3.85;;
69847;SDS011;57143;55.940;37.496;2023-06-22T10:03:44;8.35;;;4.32;;
69847;SDS011;57143;55.940;37.496;2023-06-22T10:06:11;7.78;;;3.70;;
69847;SDS011;57143;55.940;37.496;2023-06-22T10:08:39;8.13;;;4.13;;
69847;SDS011;57143;55.940;37.496;2023-06-22T10:11:06;9.23;;;3.73;;
69847;SDS011;57143;55.940;37.496;2023-06-22T10:13:33;8.43;;;4.07;;
69847;SDS011;57143;55.940;37.496;2023-06-22T10:16:00;10.48;;;4.00;;
69847;SDS011;57143;55.940;37.496;2023-06-22T10:18:27;11.07;;;3.85;;
69847;SDS011;57143;55.940;37.496;2023-06-22T10:20:57;9.13;;;4.07;;
69847;SDS011;57143;55.940;37.496;2023-06-22T10:23:24;11.30;;;3.90;;
69847;SDS011;57143;55.940;37.496;2023-06-22T10:25:51;9.45;;;4.28;;
69847;SDS011;57143;55.940;37.496;2023-06-22T10:28:19;7.18;;;3.95;;
69847;SDS011;57143;55.940;37.496;2023-06-22T10:30:46;8.43;;;4.00;;
69847;SDS011;57143;55.940;37.496;2023-06-22T10:33:13;9.50;;;3.97;;
69847;SDS011;57143;55.940;37.496;2023-06-22T10:35:40;11.03;;;4.07;;
69847;SDS011;57143;55.940;37.496;2023-06-22T10:38:09;9.88;;;3.90;;
69847;SDS011;57143;55.940;37.496;2023-06-22T10:40:36;8.65;;;4.10;;
69847;SDS011;57143;55.940;37.496;2023-06-22T10:43:04;7.50;;;3.38;;
69847;SDS011;57143;55.940;37.496;2023-06-22T10:45:32;7.35;;;3.90;;
69847;SDS011;57143;55.940;37.496;2023-06-22T10:47:59;7.50;;;3.57;;
69847;SDS011;57143;55.940;37.496;2023-06-22T10:50:26;9.73;;;3.90;;
69847;SDS011;57143;55.940;37.496;2023-06-22T10:52:53;8.38;;;4.18;;
69847;SDS011;57143;55.940;37.496;2023-06-22T10:55:22;7.05;;;3.40;;
69847;SDS011;57143;55.940;37.496;2023-06-22T10:57:49;8.35;;;4.00;;
69847;SDS011;57143;55.940;37.496;2023-06-22T11:00:17;8.60;;;4.00;;
69847;SDS011;57143;55.940;37.496;2023-06-22T11:02:45;7.63;;;3.70;;
69847;SDS011;57143;55.940;37.496;2023-06-22T11:05:12;8.18;;;3.97;;
69847;SDS011;57143;55.940;37.496;2023-06-22T11:07:41;8.50;;;3.75;;
69847;SDS011;57143;55.940;37.496;2023-06-22T11:10:09;8.52;;;4.05;;
69847;SDS011;57143;55.940;37.496;2023-06-22T11:12:37;6.60;;;3.90;;
69847;SDS011;57143;55.940;37.496;2023-06-22T11:15:05;8.75;;;4.30;;
69847;SDS011;57143;55.940;37.496;2023-06-22T11:17:33;6.75;;;3.60;;
69847;SDS011;57143;55.940;37.496;2023-06-22T11:20:00;9.35;;;4.30;;
69847;SDS011;57143;55.940;37.496;2023-06-22T11:22:30;7.78;;;3.70;;
69847;SDS011;57143;55.940;37.496;2023-06-22T11:24:59;7.80;;;3.90;;
69847;SDS011;57143;55.940;37.496;2023-06-22T11:27:26;6.88;;;3.35;;
69847;SDS011;57143;55.940;37.496;2023-06-22T11:29:54;8.00;;;3.95;;
69847;SDS011;57143;55.940;37.496;2023-06-22T11:32:22;8.05;;;3.72;;
69847;SDS011;57143;55.940;37.496;2023-06-22T11:34:49;7.82;;;3.60;;
69847;SDS011;57143;55.940;37.496;2023-06-22T11:37:16;8.33;;;4.17;;
69847;SDS011;57143;55.940;37.496;2023-06-22T11:39:43;10.32;;;4.25;;
69847;SDS011;57143;55.940;37.496;2023-06-22T11:42:10;9.77;;;3.97;;
69847;SDS011;57143;55.940;37.496;2023-06-22T11:44:38;8.30;;;4.50;;
69847;SDS011;57143;55.940;37.496;2023-06-22T11:47:07;8.82;;;3.90;;
69847;SDS011;57143;55.940;37.496;2023-06-22T11:49:34;9.77;;;4.23;;
69847;SDS011;57143;55.940;37.496;2023-06-22T11:52:01;7.40;;;3.95;;
69847;SDS011;57143;55.940;37.496;2023-06-22T11:54:28;8.77;;;4.13;;
69847;SDS011;57143;55.940;37.496;2023-06-22T11:56:56;9.20;;;4.22;;
69847;SDS011;57143;55.940;37.496;2023-06-22T11:59:23;8.60;;;4.47;;
69847;SDS011;57143;55.940;37.496;2023-06-22T12:01:50;8.33;;;4.30;;
69847;SDS011;57143;55.940;37.496;2023-06-22T12:04:18;9.23;;;4.10;;
69847;SDS011;57143;55.940;37.496;2023-06-22T12:06:46;9.93;;;4.43;;
69847;SDS011;57143;55.940;37.496;2023-06-22T12:09:13;8.50;;;4.18;;
69847;SDS011;57143;55.940;37.496;2023-06-22T12:11:40;11.10;;;4.63;;
69847;SDS011;57143;55.940;37.496;2023-06-22T12:14:08;8.83;;;4.60;;
69847;SDS011;57143;55.940;37.496;2023-06-22T12:16:35;8.52;;;4.40;;
69847;SDS011;57143;55.940;37.496;2023-06-22T12:19:03;7.50;;;3.88;;
69847;SDS011;57143;55.940;37.496;2023-06-22T12:21:31;8.63;;;4.00;;
69847;SDS011;57143;55.940;37.496;2023-06-22T12:23:58;9.23;;;4.50;;
69847;SDS011;57143;55.940;37.496;2023-06-22T12:26:26;7.63;;;4.27;;
69847;SDS011;57143;55.940;37.496;2023-06-22T12:28:53;9.43;;;4.65;;
69847;SDS011;57143;55.940;37.496;2023-06-22T12:31:20;9.57;;;4.78;;
69847;SDS011;57143;55.940;37.496;2023-06-22T12:33:47;9.15;;;4.40;;
69847;SDS011;57143;55.940;37.496;2023-06-22T12:36:15;7.43;;;4.60;;
69847;SDS011;57143;55.940;37.496;2023-06-22T12:38:44;9.67;;;4.37;;
69847;SDS011;57143;55.940;37.496;2023-06-22T12:41:11;8.75;;;4.82;;
69847;SDS011;57143;55.940;37.496;2023-06-22T12:43:38;7.53;;;4.60;;
69847;SDS011;57143;55.940;37.496;2023-06-22T12:46:05;9.98;;;5.20;;
69847;SDS011;57143;55.940;37.496;2023-06-22T12:48:32;7.30;;;4.28;;
69847;SDS011;57143;55.940;37.496;2023-06-22T12:51:03;7.90;;;3.90;;
69847;SDS011;57143;55.940;37.496;2023-06-22T12:53:30;8.60;;;4.63;;
69847;SDS011;57143;55.940;37.496;2023-06-22T12:55:58;11.43;;;4.40;;
69847;SDS011;57143;55.940;37.496;2023-06-22T12:58:25;9.20;;;4.50;;
69847;SDS011;57143;55.940;37.496;2023-06-22T13:00:53;9.60;;;4.65;;
69847;SDS011;57143;55.940;37.496;2023-06-22T13:03:20;8.80;;;4.57;;
69847;SDS011;57143;55.940;37.496;2023-06-22T13:05:47;10.95;;;4.60;;
69847;SDS011;57143;55.940;37.496;2023-06-22T13:08:14;8.07;;;4.55;;
69847;SDS011;57143;55.940;37.496;2023-06-22T13:10:41;9.23;;;4.32;;
69847;SDS011;57143;55.940;37.496;2023-06-22T13:13:10;8.82;;;4.40;;
69847;SDS011;57143;55.940;37.496;2023-06-22T13:15:37;8.30;;;4.63;;
69847;SDS011;57143;55.940;37.496;2023-06-22T13:18:04;10.90;;;4.57;;
69847;SDS011;57143;55.940;37.496;2023-06-22T13:20:32;7.72;;;3.67;;
69847;SDS011;57143;55.940;37.496;2023-06-22T13:22:59;6.85;;;3.90;;
69847;SDS011;57143;55.940;37.496;2023-06-22T13:25:26;8.15;;;4.35;;
69847;SDS011;57143;55.940;37.496;2023-06-22T13:27:53;10.10;;;4.40;;
69847;SDS011;57143;55.940;37.496;2023-06-22T13:30:22;8.32;;;3.90;;
69847;SDS011;57143;55.940;37.496;2023-06-22T13:32:49;9.90;;;4.47;;
69847;SDS011;57143;55.940;37.496;2023-06-22T13:35:16;10.23;;;4.40;;
69847;SDS011;57143;55.940;37.496;2023-06-22T13:37:43;8.80;;;4.65;;
69847;SDS011;57143;55.940;37.496;2023-06-22T13:40:11;8.70;;;4.93;;
69847;SDS011;57143;55.940;37.496;2023-06-22T13:42:38;8.18;;;4.38;;
69847;SDS011;57143;55.940;37.496;2023-06-22T13:45:06;10.15;;;4.55;;
69847;SDS011;57143;55.940;37.496;2023-06-22T13:47:36;8.25;;;4.32;;
69847;SDS011;57143;55.940;37.496;2023-06-22T13:50:04;8.60;;;4.30;;
69847;SDS011;57143;55.940;37.496;2023-06-22T13:52:32;7.90;;;4.13;;
69847;SDS011;57143;55.940;37.496;2023-06-22T13:54:59;9.10;;;4.43;;
69847;SDS011;57143;55.940;37.496;2023-06-22T13:57:29;8.18;;;4.30;;
69847;SDS011;57143;55.940;37.496;2023-06-22T13:59:56;8.35;;;4.20;;
69847;SDS011;57143;55.940;37.496;2023-06-22T14:02:23;8.63;;;4.05;;
69847;SDS011;57143;55.940;37.496;2023-06-22T14:04:54;7.67;;;4.13;;
69847;SDS011;57143;55.940;37.496;2023-06-22T14:07:21;8.00;;;4.07;;
69847;SDS011;57143;55.940;37.496;2023-06-22T14:09:49;13.35;;;4.80;;
69847;SDS011;57143;55.940;37.496;2023-06-22T14:12:16;8.48;;;4.50;;
69847;SDS011;57143;55.940;37.496;2023-06-22T14:14:44;8.25;;;4.53;;
69847;SDS011;57143;55.940;37.496;2023-06-22T14:17:11;10.60;;;3.97;;
69847;SDS011;57143;55.940;37.496;2023-06-22T14:19:38;8.85;;;4.20;;
69847;SDS011;57143;55.940;37.496;2023-06-22T14:22:07;10.68;;;4.10;;
69847;SDS011;57143;55.940;37.496;2023-06-22T14:24:34;7.72;;;3.97;;
69847;SDS011;57143;55.940;37.496;2023-06-22T14:27:01;8.82;;;4.30;;
69847;SDS011;57143;55.940;37.496;2023-06-22T14:29:33;9.17;;;4.70;;
69847;SDS011;57143;55.940;37.496;2023-06-22T14:32:00;7.63;;;4.28;;
69847;SDS011;57143;55.940;37.496;2023-06-22T14:34:27;10.13;;;3.97;;